Etusivu
METAR-TAF:

METAR-TAF

Lentoasemat :

Tabrīz, Iran

Leveyspiiri: 38-05N, Pituuspiiri: 046-17E, korkeus merenpinnasta: 1367 m

Tämänhetkinen sää

Tämä raportti tehtiin 20 minuuttia sitten, kello 00.30 UTC
Tuuli 4 kn pohjoisesta
Lämpötila -3°C
Kosteus 68%
Ilmanpaine 1021 hPa
Näkyvyys 10 km tai enemmän
ei pilviä alle 1500 m:ssä eikä cumulonimbus-pilviä

METAR: OITT 200030Z 01004KT CAVOK M03/M08 Q1020 A3014

Aika: 04:20 (00:50 UTC)

Sääennuste

Tämä raportti tehtiin 1 tunti ja 20 minuuttia sitten, kello 23.30 UTC
Ennuste voimassa 20. päivästä klo 00 UTC - 21. päivään klo 06 UTC
Tuuli 8 kn pohjoisen/luoteesta
Näkyvyys 10 km tai enemmän
ei pilviä alle 1500 m:ssä eikä cumulonimbus-pilviä

TAF: OITT 192330Z 2000/2106 33008KT CAVOK

Säähavainnot ja -ennusteet yli 4000 lentoasemalta (METAR- ja TAF-raportit).

Käytössä olevat sääasemat on merkitty karttaan keltaisilla ja punaisilla pisteillä.

Aseta hiiri pisteen päälle nähdäksesi sääaseman nimen.

Klikkaa sitten nähdäksesi säähavainnot ja -ennusteet.

Kartan vaihtaminen: klikkaa mustalla rastilla varustettuja vihreitä pisteitä, niin voit zoomata sisään; viivalla varustettua vihreää pistettä, niin voit zoomata ulos tai vihreitä nuolia, niin pääset viereisille kartoille.


METAR-TAF: